createdAt,value
2022-10-24T00:01:23.663Z,10.60
2022-10-24T00:03:51.356Z,10.60
2022-10-24T00:06:20.235Z,10.60
2022-10-24T00:08:48.205Z,10.60
2022-10-24T00:11:22.160Z,10.60
2022-10-24T00:13:50.371Z,10.50
2022-10-24T00:16:18.663Z,10.50
2022-10-24T00:18:46.186Z,10.50
2022-10-24T00:21:14.162Z,10.50
2022-10-24T00:23:41.301Z,10.50
2022-10-24T00:26:08.520Z,10.40
2022-10-24T00:28:39.766Z,10.40
2022-10-24T00:31:12.645Z,10.40
2022-10-24T00:33:39.810Z,10.40
2022-10-24T00:36:16.077Z,10.30
2022-10-24T00:38:43.676Z,10.30
2022-10-24T00:41:20.164Z,10.30
2022-10-24T00:43:47.858Z,10.30
2022-10-24T00:46:18.117Z,10.30
2022-10-24T00:48:53.337Z,10.30
2022-10-24T00:51:33.856Z,10.30
2022-10-24T00:54:06.257Z,10.20
2022-10-24T00:56:41.169Z,10.30
2022-10-24T00:59:12.798Z,10.20
2022-10-24T01:01:43.611Z,10.20
2022-10-24T01:04:13.948Z,10.20
2022-10-24T01:07:10.214Z,10.20
2022-10-24T01:10:09.605Z,10.20
2022-10-24T01:12:57.560Z,10.10
2022-10-24T01:15:49.149Z,10.10
2022-10-24T01:18:39.428Z,10.10
2022-10-24T01:21:30.685Z,10.00
2022-10-24T01:24:49.541Z,9.90
2022-10-24T01:28:04.423Z,10.00
2022-10-24T01:30:48.030Z,10.00
2022-10-24T01:33:46.265Z,10.00
2022-10-24T01:36:34.782Z,10.00
2022-10-24T01:39:10.759Z,10.00
2022-10-24T01:41:40.301Z,10.00
2022-10-24T01:44:21.802Z,9.90
2022-10-24T01:46:57.879Z,10.00
2022-10-24T01:49:34.961Z,10.00
2022-10-24T01:52:10.018Z,10.00
2022-10-24T01:54:39.672Z,9.90
2022-10-24T01:57:08.072Z,9.90
2022-10-24T01:59:45.835Z,9.90
2022-10-24T02:02:30.289Z,9.90
2022-10-24T02:05:09.666Z,9.90
2022-10-24T02:07:43.054Z,9.90
2022-10-24T02:10:24.510Z,9.90
2022-10-24T02:13:05.371Z,9.90
2022-10-24T02:15:40.948Z,9.80
2022-10-24T02:18:10.130Z,9.80
2022-10-24T02:21:16.801Z,9.80
2022-10-24T02:24:02.757Z,9.80
2022-10-24T02:26:57.705Z,9.80
2022-10-24T02:29:36.269Z,9.80
2022-10-24T02:32:13.693Z,9.80
2022-10-24T02:34:43.839Z,9.80
2022-10-24T02:37:14.538Z,9.70
2022-10-24T02:39:48.170Z,9.70
2022-10-24T02:42:17.315Z,9.70
2022-10-24T02:44:48.188Z,9.70
2022-10-24T02:47:18.103Z,9.70
2022-10-24T02:49:46.758Z,9.70
2022-10-24T02:52:14.608Z,9.60
2022-10-24T02:54:41.979Z,9.70
2022-10-24T02:57:09.287Z,9.60
2022-10-24T02:59:36.552Z,9.60
2022-10-24T03:02:03.854Z,9.60
2022-10-24T03:04:31.609Z,9.70
2022-10-24T03:06:58.694Z,9.60
2022-10-24T03:09:25.961Z,9.60
2022-10-24T03:11:53.229Z,9.60
2022-10-24T03:14:20.401Z,9.60
2022-10-24T03:16:47.400Z,9.60
2022-10-24T03:19:14.686Z,9.60
2022-10-24T03:21:42.153Z,9.50
2022-10-24T03:24:10.075Z,9.50
2022-10-24T03:26:37.343Z,9.50
2022-10-24T03:29:05.210Z,9.50
2022-10-24T03:31:32.633Z,9.50
2022-10-24T03:34:00.659Z,9.50
2022-10-24T03:36:29.229Z,9.50
2022-10-24T03:38:56.382Z,9.50
2022-10-24T03:41:23.705Z,9.50
2022-10-24T03:43:50.818Z,9.40
2022-10-24T03:46:18.263Z,9.40
2022-10-24T03:48:45.877Z,9.40
2022-10-24T03:51:12.989Z,9.40
2022-10-24T03:53:40.237Z,9.40
2022-10-24T03:56:08.110Z,9.40
2022-10-24T03:58:35.357Z,9.40
2022-10-24T04:01:02.485Z,9.40
2022-10-24T04:03:29.900Z,9.40
2022-10-24T04:05:56.875Z,9.30
2022-10-24T04:08:24.137Z,9.40
2022-10-24T04:10:51.571Z,9.40
2022-10-24T04:13:18.750Z,9.40
2022-10-24T04:15:45.690Z,9.40
2022-10-24T04:18:13.053Z,9.40
2022-10-24T04:20:40.012Z,9.40
2022-10-24T04:23:07.426Z,9.40
2022-10-24T04:25:34.698Z,9.40
2022-10-24T04:28:02.702Z,9.40
2022-10-24T04:30:29.857Z,9.40
2022-10-24T04:32:57.556Z,9.40
2022-10-24T04:35:26.068Z,9.40
2022-10-24T04:37:53.743Z,9.40
2022-10-24T04:40:21.137Z,9.40
2022-10-24T04:42:48.417Z,9.40
2022-10-24T04:45:15.626Z,9.40
2022-10-24T04:47:43.803Z,9.40
2022-10-24T04:50:11.661Z,9.40
2022-10-24T04:52:39.089Z,9.40
2022-10-24T04:55:06.610Z,9.40
2022-10-24T04:57:33.917Z,9.50
2022-10-24T05:00:04.193Z,9.40
2022-10-24T05:02:32.974Z,9.40
2022-10-24T05:05:00.058Z,9.40
2022-10-24T05:07:29.449Z,9.40
2022-10-24T05:09:56.744Z,9.40
2022-10-24T05:12:23.960Z,9.40
2022-10-24T05:14:50.892Z,9.40
2022-10-24T05:17:18.284Z,9.40
2022-10-24T05:19:45.421Z,9.40
2022-10-24T05:22:12.630Z,9.40
2022-10-24T05:24:39.804Z,9.50
2022-10-24T05:27:07.501Z,9.40
2022-10-24T05:29:35.497Z,9.50
2022-10-24T05:32:04.701Z,9.50
2022-10-24T05:34:31.921Z,9.40
2022-10-24T05:36:59.377Z,9.40
2022-10-24T05:39:26.533Z,9.40
2022-10-24T05:41:55.302Z,9.50
2022-10-24T05:44:22.885Z,9.50
2022-10-24T05:46:50.278Z,9.50
2022-10-24T05:49:17.219Z,9.50
2022-10-24T05:51:44.363Z,9.50
2022-10-24T05:56:39.771Z,9.50
2022-10-24T05:59:06.798Z,9.50
2022-10-24T06:01:35.018Z,9.60
2022-10-24T06:04:02.503Z,9.60
2022-10-24T06:06:30.023Z,9.60
2022-10-24T06:08:57.150Z,9.60
2022-10-24T06:11:24.387Z,9.60
2022-10-24T06:13:51.422Z,9.60
2022-10-24T06:16:18.920Z,9.70
2022-10-24T06:18:45.928Z,9.70
2022-10-24T06:21:15.508Z,9.70
2022-10-24T06:23:42.710Z,9.70
2022-10-24T06:26:11.399Z,9.70
2022-10-24T06:28:39.056Z,9.70
2022-10-24T06:31:08.192Z,9.80
2022-10-24T06:33:35.705Z,9.80
2022-10-24T06:36:05.511Z,9.80
2022-10-24T06:38:33.206Z,9.80
2022-10-24T06:41:07.479Z,9.80
2022-10-24T06:43:36.351Z,9.80
2022-10-24T06:46:14.281Z,9.90
2022-10-24T06:48:41.848Z,9.90
2022-10-24T06:51:09.412Z,9.90
2022-10-24T06:53:36.583Z,9.90
2022-10-24T06:56:06.443Z,10.00
2022-10-24T06:58:36.613Z,10.00
2022-10-24T07:01:17.471Z,10.00
2022-10-24T07:03:46.152Z,10.10
2022-10-24T07:08:52.462Z,10.20
2022-10-24T07:11:19.843Z,10.30
2022-10-24T07:13:48.032Z,10.30
2022-10-24T07:16:16.430Z,10.50
2022-10-24T07:18:44.234Z,10.70
2022-10-24T07:21:20.589Z,10.70
2022-10-24T07:23:47.996Z,10.80
2022-10-24T07:26:16.735Z,10.90
2022-10-24T07:28:46.511Z,10.90
2022-10-24T07:31:17.655Z,11.00
2022-10-24T07:33:44.729Z,11.10
2022-10-24T07:36:21.651Z,11.20
2022-10-24T07:38:51.862Z,11.30
2022-10-24T07:41:19.602Z,11.40
2022-10-24T07:43:47.267Z,11.50
2022-10-24T07:46:17.205Z,11.50
2022-10-24T07:48:44.597Z,11.60
2022-10-24T07:51:14.370Z,11.70
2022-10-24T07:53:42.595Z,11.80
2022-10-24T07:56:15.949Z,11.90
2022-10-24T07:58:45.881Z,12.00
2022-10-24T08:01:24.315Z,12.20
2022-10-24T08:03:51.621Z,12.30
2022-10-24T08:06:28.938Z,12.50
2022-10-24T08:08:56.738Z,12.70
2022-10-24T08:11:28.218Z,12.80
2022-10-24T08:13:59.570Z,12.90
2022-10-24T08:16:27.056Z,13.00
2022-10-24T08:18:57.715Z,13.10
2022-10-24T08:21:25.601Z,13.20
2022-10-24T08:23:54.631Z,13.40
2022-10-24T08:26:24.673Z,13.50
2022-10-24T08:28:53.309Z,13.70
2022-10-24T08:31:23.307Z,13.90
2022-10-24T08:33:55.512Z,14.00
2022-10-24T08:36:30.503Z,14.10
2022-10-24T08:38:58.487Z,14.30
2022-10-24T08:41:33.437Z,14.50
2022-10-24T08:44:04.477Z,14.70
2022-10-24T08:46:40.475Z,14.90
2022-10-24T08:49:28.158Z,15.00
2022-10-24T08:52:17.766Z,15.10
2022-10-24T08:54:46.607Z,15.50
2022-10-24T08:57:27.875Z,15.70
2022-10-24T09:00:02.274Z,16.10
2022-10-24T09:02:38.141Z,16.40
2022-10-24T09:05:24.428Z,16.50
2022-10-24T09:08:39.155Z,16.70
2022-10-24T09:11:07.798Z,16.80
2022-10-24T09:13:38.481Z,16.90
2022-10-24T09:16:06.154Z,17.30
2022-10-24T09:18:42.004Z,17.50
2022-10-24T09:21:14.947Z,17.70
2022-10-24T09:23:43.964Z,17.80
2022-10-24T09:26:24.851Z,17.90
2022-10-24T09:28:55.152Z,18.00
2022-10-24T09:31:25.921Z,18.30
2022-10-24T09:33:54.295Z,18.50
2022-10-24T09:36:25.111Z,18.70
2022-10-24T09:38:52.528Z,18.90
2022-10-24T09:41:27.190Z,19.10
2022-10-24T09:44:04.389Z,19.50
2022-10-24T09:46:45.315Z,19.70
2022-10-24T09:49:12.563Z,19.60
2022-10-24T09:51:45.764Z,19.50
2022-10-24T09:54:19.299Z,19.50
2022-10-24T09:57:11.203Z,19.40
2022-10-24T09:59:58.672Z,19.40
2022-10-24T10:02:34.361Z,19.40
2022-10-24T10:05:04.314Z,19.50
2022-10-24T10:07:33.969Z,19.40
2022-10-24T10:10:19.302Z,19.40
2022-10-24T10:13:04.445Z,19.40
2022-10-24T10:15:49.180Z,19.40
2022-10-24T10:18:39.635Z,19.40
2022-10-24T10:21:14.573Z,19.40
2022-10-24T10:23:51.322Z,19.40
2022-10-24T10:26:46.276Z,19.40
2022-10-24T10:29:19.451Z,19.40
2022-10-24T10:32:03.530Z,19.50
2022-10-24T10:34:45.658Z,19.50
2022-10-24T10:37:35.947Z,19.50
2022-10-24T10:40:03.232Z,19.50
2022-10-24T10:43:00.805Z,19.40
2022-10-24T10:45:47.018Z,19.40
2022-10-24T10:49:08.071Z,19.40
2022-10-24T10:52:09.917Z,19.40
2022-10-24T10:55:15.078Z,19.40
2022-10-24T10:58:49.637Z,19.50
2022-10-24T11:01:33.956Z,19.50
2022-10-24T11:04:13.319Z,19.40
2022-10-24T11:06:56.567Z,19.50
2022-10-24T11:09:33.120Z,19.50
2022-10-24T11:12:22.337Z,19.50
2022-10-24T11:15:00.535Z,19.60
2022-10-24T11:17:59.898Z,19.70
2022-10-24T11:20:37.358Z,19.70
2022-10-24T11:23:10.310Z,19.90
2022-10-24T11:26:09.686Z,20.00
2022-10-24T11:29:17.841Z,20.10
2022-10-24T11:35:13.927Z,20.40
2022-10-24T11:37:47.806Z,20.60
2022-10-24T11:40:23.588Z,20.80
2022-10-24T11:43:19.777Z,20.90
2022-10-24T11:46:04.263Z,21.00
2022-10-24T11:48:53.277Z,21.00
2022-10-24T11:51:47.488Z,21.20
2022-10-24T11:54:26.331Z,21.40
2022-10-24T11:57:04.489Z,21.60
2022-10-24T11:59:31.867Z,21.60
2022-10-24T12:02:07.222Z,21.70
2022-10-24T12:05:00.331Z,21.90
2022-10-24T12:08:10.425Z,22.10
2022-10-24T12:11:20.034Z,22.20
2022-10-24T12:14:22.801Z,22.50
2022-10-24T12:17:29.012Z,22.70
2022-10-24T12:19:57.052Z,22.70
2022-10-24T12:22:40.256Z,22.80
2022-10-24T12:25:26.210Z,22.80
2022-10-24T12:27:58.060Z,22.90
2022-10-24T12:30:29.750Z,23.00
2022-10-24T12:33:32.462Z,23.10
2022-10-24T12:36:00.085Z,23.10
2022-10-24T12:38:27.456Z,23.20
2022-10-24T12:41:32.454Z,23.20
2022-10-24T12:44:37.789Z,23.30
2022-10-24T12:47:40.254Z,23.50
2022-10-24T12:50:23.085Z,23.60
2022-10-24T12:53:02.946Z,23.60
2022-10-24T12:56:08.002Z,23.60
2022-10-24T12:58:42.960Z,23.60
2022-10-24T13:01:27.335Z,23.70
2022-10-24T13:04:18.560Z,23.70
2022-10-24T13:07:57.514Z,23.70
2022-10-24T13:10:59.429Z,23.60
2022-10-24T13:14:21.410Z,23.50
2022-10-24T13:17:26.726Z,23.50
2022-10-24T13:20:23.569Z,23.40
2022-10-24T13:23:03.448Z,23.30
2022-10-24T13:25:37.474Z,23.20
2022-10-24T13:28:19.720Z,23.10
2022-10-24T13:30:49.899Z,23.20
2022-10-24T13:33:32.979Z,23.10
2022-10-24T13:36:09.854Z,23.10
2022-10-24T13:38:42.335Z,23.20
2022-10-24T13:41:17.379Z,23.30
2022-10-24T13:43:51.751Z,23.20
2022-10-24T13:49:25.690Z,23.00
2022-10-24T13:51:59.653Z,22.90
2022-10-24T13:54:33.097Z,22.80
2022-10-24T13:57:02.257Z,22.70
2022-10-24T13:59:38.757Z,22.50
2022-10-24T14:02:19.573Z,22.40
2022-10-24T14:04:49.511Z,22.30
2022-10-24T14:07:27.017Z,22.20
2022-10-24T14:10:16.980Z,22.10
2022-10-24T14:12:45.693Z,22.00
2022-10-24T14:15:20.382Z,21.90
2022-10-24T14:18:00.258Z,21.80
2022-10-24T14:20:36.277Z,21.70
2022-10-24T14:23:24.547Z,21.60
2022-10-24T14:26:03.359Z,21.50
2022-10-24T14:28:45.890Z,21.40
2022-10-24T14:31:26.877Z,21.30
2022-10-24T14:33:56.657Z,21.20
2022-10-24T14:36:29.498Z,21.10
2022-10-24T14:39:00.919Z,21.00
2022-10-24T14:41:34.563Z,20.90
2022-10-24T14:44:07.193Z,20.90
2022-10-24T14:46:39.808Z,20.80
2022-10-24T14:49:27.404Z,20.70
2022-10-24T14:52:10.253Z,20.70
2022-10-24T14:54:41.433Z,20.60
2022-10-24T14:57:19.921Z,20.50
2022-10-24T14:59:50.938Z,20.40
2022-10-24T15:02:33.003Z,20.40
2022-10-24T15:05:27.686Z,20.40
2022-10-24T15:08:24.148Z,20.30
2022-10-24T15:11:16.216Z,20.20
2022-10-24T15:14:05.612Z,20.20
2022-10-24T15:16:39.483Z,20.10
2022-10-24T15:19:14.723Z,20.00
2022-10-24T15:21:46.003Z,20.00
2022-10-24T15:24:27.008Z,19.90
2022-10-24T15:27:11.399Z,19.90
2022-10-24T15:29:40.606Z,19.80
2022-10-24T15:32:10.663Z,19.80
2022-10-24T15:34:37.702Z,19.70
2022-10-24T15:37:07.629Z,19.60
2022-10-24T15:39:35.293Z,19.60
2022-10-24T15:44:35.455Z,19.50
2022-10-24T15:47:06.239Z,19.40
2022-10-24T15:49:35.456Z,19.30
2022-10-24T15:52:07.971Z,19.30
2022-10-24T15:54:35.163Z,19.20
2022-10-24T15:57:05.254Z,19.20
2022-10-24T15:59:32.987Z,19.10
2022-10-24T16:02:03.540Z,19.10
2022-10-24T16:04:34.586Z,19.00
2022-10-24T16:07:02.416Z,19.00
2022-10-24T16:09:31.098Z,18.90
2022-10-24T16:11:58.613Z,18.80
2022-10-24T16:14:26.140Z,18.80
2022-10-24T16:16:56.485Z,18.70
2022-10-24T16:19:26.604Z,18.70
2022-10-24T16:21:58.346Z,18.60
2022-10-24T16:24:26.591Z,18.60
2022-10-24T16:26:54.242Z,18.50
2022-10-24T16:29:21.294Z,18.50
2022-10-24T16:31:50.744Z,18.40
2022-10-24T16:34:18.325Z,18.40
2022-10-24T16:36:45.829Z,18.30
2022-10-24T16:39:14.398Z,18.30
2022-10-24T16:41:45.817Z,18.30
2022-10-24T16:44:14.111Z,18.20
2022-10-24T16:46:41.253Z,18.20
2022-10-24T16:49:08.495Z,18.10
2022-10-24T16:51:38.273Z,18.10
2022-10-24T16:54:07.564Z,18.10
2022-10-24T16:56:35.048Z,18.00
2022-10-24T16:59:02.846Z,18.00
2022-10-24T17:01:30.509Z,17.90
2022-10-24T17:03:57.561Z,17.90
2022-10-24T17:06:25.010Z,17.90
2022-10-24T17:08:52.601Z,17.80
2022-10-24T17:11:43.704Z,17.80
2022-10-24T17:16:42.005Z,17.70
2022-10-24T17:19:16.275Z,17.70
2022-10-24T17:21:50.896Z,17.60
2022-10-24T17:24:23.139Z,17.60
2022-10-24T17:26:52.552Z,17.50
2022-10-24T17:29:32.991Z,17.50
2022-10-24T17:32:00.940Z,17.50
2022-10-24T17:34:28.986Z,17.50
2022-10-24T17:37:21.738Z,17.40
2022-10-24T17:39:51.854Z,17.30
2022-10-24T17:42:19.794Z,17.30
2022-10-24T17:44:47.649Z,17.30
2022-10-24T17:47:16.688Z,17.20
2022-10-24T17:49:44.698Z,17.20
2022-10-24T17:52:23.751Z,17.10
2022-10-24T17:54:51.279Z,17.10
2022-10-24T17:57:18.678Z,17.00
2022-10-24T17:59:46.124Z,17.00
2022-10-24T18:02:14.912Z,17.00
2022-10-24T18:04:44.498Z,16.90
2022-10-24T18:07:11.810Z,16.90
2022-10-24T18:09:40.058Z,16.80
2022-10-24T18:12:07.617Z,16.80
2022-10-24T18:14:37.438Z,16.80
2022-10-24T18:17:14.680Z,16.70
2022-10-24T18:19:43.317Z,16.60
2022-10-24T18:22:10.838Z,16.60
2022-10-24T18:24:38.097Z,16.50
2022-10-24T18:27:07.544Z,16.50
2022-10-24T18:29:34.819Z,16.40
2022-10-24T18:32:08.280Z,16.40
2022-10-24T18:34:35.546Z,16.40
2022-10-24T18:37:06.043Z,16.30
2022-10-24T18:39:33.402Z,16.30
2022-10-24T18:42:27.977Z,16.30
2022-10-24T18:44:56.576Z,16.20
2022-10-24T18:47:25.839Z,16.20
2022-10-24T18:49:54.536Z,16.10
2022-10-24T18:52:28.452Z,16.10
2022-10-24T18:55:06.862Z,16.10
2022-10-24T18:57:36.642Z,16.00
2022-10-24T19:00:07.311Z,16.00
2022-10-24T19:05:30.561Z,16.00
2022-10-24T19:07:59.441Z,15.90
2022-10-24T19:10:28.501Z,15.90
2022-10-24T19:12:57.478Z,15.90
2022-10-24T19:15:25.793Z,15.90
2022-10-24T19:17:56.385Z,15.90
2022-10-24T19:20:24.435Z,15.90
2022-10-24T19:22:52.276Z,15.80
2022-10-24T19:25:20.334Z,15.80
2022-10-24T19:27:49.267Z,15.70
2022-10-24T19:30:16.563Z,15.70
2022-10-24T19:32:44.227Z,15.70
2022-10-24T19:35:11.341Z,15.70
2022-10-24T19:37:38.686Z,15.60
2022-10-24T19:40:08.334Z,15.60
2022-10-24T19:42:35.932Z,15.60
2022-10-24T19:45:05.151Z,15.60
2022-10-24T19:47:33.219Z,15.50
2022-10-24T19:50:00.483Z,15.50
2022-10-24T19:52:27.773Z,15.50
2022-10-24T19:54:54.823Z,15.50
2022-10-24T19:57:22.138Z,15.50
2022-10-24T19:59:49.392Z,15.50
2022-10-24T20:02:16.671Z,15.50
2022-10-24T20:04:48.109Z,15.50
2022-10-24T20:07:17.685Z,15.50
2022-10-24T20:09:44.810Z,15.50
2022-10-24T20:12:12.221Z,15.40
2022-10-24T20:14:40.371Z,15.40
2022-10-24T20:17:07.749Z,15.40
2022-10-24T20:19:34.837Z,15.40
2022-10-24T20:22:04.941Z,15.40
2022-10-24T20:24:33.462Z,15.30
2022-10-24T20:27:01.797Z,15.30
2022-10-24T20:29:28.910Z,15.30
2022-10-24T20:31:56.498Z,15.30
2022-10-24T20:34:23.738Z,15.30
2022-10-24T20:36:50.878Z,15.30
2022-10-24T20:39:21.781Z,15.30
2022-10-24T20:41:51.864Z,15.30
2022-10-24T20:44:21.594Z,15.30
2022-10-24T20:46:49.947Z,15.30
2022-10-24T20:49:16.910Z,15.20
2022-10-24T20:51:44.278Z,15.30
2022-10-24T20:54:11.495Z,15.20
2022-10-24T20:56:42.218Z,15.20
2022-10-24T20:59:12.687Z,15.10
2022-10-24T21:01:40.007Z,15.10
2022-10-24T21:04:07.846Z,15.10
2022-10-24T21:06:37.035Z,15.10
2022-10-24T21:09:06.754Z,15.10
2022-10-24T21:11:35.449Z,15.10
2022-10-24T21:14:07.568Z,15.10
2022-10-24T21:16:35.270Z,15.10
2022-10-24T21:19:04.396Z,15.10
2022-10-24T21:21:31.838Z,15.10
2022-10-24T21:24:05.962Z,15.10
2022-10-24T21:26:38.498Z,15.10
2022-10-24T21:29:31.836Z,15.10
2022-10-24T21:31:54.762Z,15.10
2022-10-24T21:34:22.113Z,15.10
2022-10-24T21:36:49.785Z,15.10
2022-10-24T21:39:17.815Z,15.10
2022-10-24T21:41:45.258Z,15.10
2022-10-24T21:44:14.305Z,15.10
2022-10-24T21:46:41.838Z,15.10
2022-10-24T21:49:10.709Z,15.00
2022-10-24T21:51:41.008Z,15.10
2022-10-24T21:54:23.599Z,15.10
2022-10-24T21:56:50.968Z,15.10
2022-10-24T21:59:20.845Z,15.10
2022-10-24T22:01:58.732Z,15.00
2022-10-24T22:04:30.382Z,15.00
2022-10-24T22:06:57.601Z,15.00
2022-10-24T22:09:24.641Z,15.00
2022-10-24T22:11:54.764Z,15.00
2022-10-24T22:14:21.729Z,15.10
2022-10-24T22:16:48.915Z,15.10
2022-10-24T22:19:16.590Z,15.10
2022-10-24T22:21:47.883Z,15.10
2022-10-24T22:24:23.669Z,15.10
2022-10-24T22:26:52.033Z,15.10
2022-10-24T22:29:23.843Z,15.10
2022-10-24T22:31:54.091Z,15.10
2022-10-24T22:34:25.907Z,15.10
2022-10-24T22:37:23.293Z,15.10
2022-10-24T22:39:50.907Z,15.10
2022-10-24T22:42:20.223Z,15.10
2022-10-24T22:44:48.369Z,15.10
2022-10-24T22:47:46.518Z,15.10
2022-10-24T22:50:54.901Z,15.10
2022-10-24T22:53:29.215Z,15.10
2022-10-24T22:56:13.523Z,15.00
2022-10-24T22:58:43.705Z,15.00
2022-10-24T23:01:46.971Z,15.10
2022-10-24T23:04:42.886Z,15.10
2022-10-24T23:07:49.551Z,15.10
2022-10-24T23:10:22.436Z,15.10
2022-10-24T23:12:50.541Z,15.10
2022-10-24T23:15:20.554Z,15.10
2022-10-24T23:17:49.059Z,15.10
2022-10-24T23:20:35.446Z,15.10
2022-10-24T23:23:16.407Z,15.10
2022-10-24T23:25:57.713Z,15.10
2022-10-24T23:28:39.942Z,15.10
2022-10-24T23:31:08.383Z,15.10
2022-10-24T23:33:35.901Z,15.10
2022-10-24T23:36:03.612Z,15.10
2022-10-24T23:38:31.244Z,15.10
2022-10-24T23:40:58.953Z,15.10
2022-10-24T23:43:26.374Z,15.00
2022-10-24T23:46:07.033Z,15.10
2022-10-24T23:49:34.547Z,15.10
2022-10-24T23:52:35.725Z,15.10
2022-10-24T23:55:04.549Z,15.10
2022-10-24T23:57:32.045Z,15.00
2022-10-24T23:59:59.058Z,15.00
